createdAt,value
2022-08-27T00:00:19.731Z,72.64
2022-08-27T00:02:47.099Z,72.27
2022-08-27T00:05:15.928Z,72.66
2022-08-27T00:07:43.494Z,71.45
2022-08-27T00:10:14.839Z,71.33
2022-08-27T00:12:42.093Z,71.59
2022-08-27T00:15:09.417Z,72.28
2022-08-27T00:17:39.332Z,72.19
2022-08-27T00:20:06.727Z,72.44
2022-08-27T00:22:33.421Z,72.56
2022-08-27T00:25:00.107Z,73.77
2022-08-27T00:27:27.051Z,73.82
2022-08-27T00:29:53.701Z,73.57
2022-08-27T00:32:20.377Z,74.81
2022-08-27T00:34:47.045Z,76.48
2022-08-27T00:37:13.899Z,76.17
2022-08-27T00:39:40.564Z,77.37
2022-08-27T00:42:07.929Z,79.03
2022-08-27T00:44:34.740Z,81.05
2022-08-27T00:47:06.967Z,80.67
2022-08-27T00:49:42.847Z,79.63
2022-08-27T00:52:29.007Z,79.40
2022-08-27T00:55:08.500Z,79.15
2022-08-27T00:57:38.111Z,79.72
2022-08-27T01:00:08.138Z,78.72
2022-08-27T01:02:35.145Z,77.99
2022-08-27T01:05:12.023Z,78.40
2022-08-27T01:07:43.223Z,79.90
2022-08-27T01:10:18.052Z,78.80
2022-08-27T01:12:45.404Z,78.30
2022-08-27T01:15:21.737Z,77.75
2022-08-27T01:17:49.229Z,77.85
2022-08-27T01:20:20.982Z,77.57
2022-08-27T01:23:00.446Z,80.88
2022-08-27T01:25:28.180Z,80.71
2022-08-27T01:27:58.905Z,79.78
2022-08-27T01:30:25.970Z,80.76
2022-08-27T01:32:53.559Z,81.97
2022-08-27T01:35:21.468Z,81.20
2022-08-27T01:37:52.445Z,83.03
2022-08-27T01:40:19.578Z,83.52
2022-08-27T01:42:50.214Z,82.32
2022-08-27T01:48:12.156Z,82.68
2022-08-27T01:50:40.668Z,85.26
2022-08-27T01:53:11.814Z,84.04
2022-08-27T01:55:40.372Z,83.03
2022-08-27T01:58:10.389Z,82.37
2022-08-27T02:00:44.614Z,82.05
2022-08-27T02:03:12.386Z,80.95
2022-08-27T02:05:44.998Z,81.24
2022-08-27T02:08:13.532Z,81.97
2022-08-27T02:10:40.454Z,80.92
2022-08-27T02:13:07.984Z,81.67
2022-08-27T02:15:35.870Z,83.18
2022-08-27T02:18:05.616Z,84.59
2022-08-27T02:20:32.830Z,84.05
2022-08-27T02:22:59.684Z,84.65
2022-08-27T02:25:26.867Z,86.00
2022-08-27T02:27:58.407Z,84.80
2022-08-27T02:30:25.191Z,84.38
2022-08-27T02:32:52.343Z,83.68
2022-08-27T02:35:21.657Z,82.99
2022-08-27T02:37:48.436Z,82.43
2022-08-27T02:40:17.396Z,85.24
2022-08-27T02:42:44.957Z,83.95
2022-08-27T02:45:12.947Z,84.42
2022-08-27T02:47:39.516Z,86.64
2022-08-27T02:50:07.491Z,85.80
2022-08-27T02:52:34.315Z,85.14
2022-08-27T02:55:01.574Z,85.44
2022-08-27T02:57:28.246Z,85.86
2022-08-27T02:59:55.068Z,85.93
2022-08-27T03:02:24.573Z,83.92
2022-08-27T03:04:54.320Z,83.03
2022-08-27T03:07:20.939Z,80.75
2022-08-27T03:09:47.589Z,79.91
2022-08-27T03:12:14.178Z,79.62
2022-08-27T03:14:40.953Z,79.16
2022-08-27T03:17:07.550Z,78.16
2022-08-27T03:19:34.548Z,77.35
2022-08-27T03:22:01.163Z,76.97
2022-08-27T03:24:27.888Z,77.63
2022-08-27T03:26:56.153Z,76.26
2022-08-27T03:29:22.923Z,75.99
2022-08-27T03:31:49.501Z,76.73
2022-08-27T03:34:19.873Z,77.01
2022-08-27T03:36:46.932Z,76.62
2022-08-27T03:39:13.774Z,76.73
2022-08-27T03:41:54.513Z,76.02
2022-08-27T03:44:24.016Z,76.92
2022-08-27T03:46:52.075Z,77.92
2022-08-27T03:49:21.454Z,77.71
2022-08-27T03:51:52.577Z,78.16
2022-08-27T03:54:19.870Z,77.11
2022-08-27T03:56:46.706Z,77.08
2022-08-27T03:59:13.559Z,77.88
2022-08-27T04:01:40.167Z,77.16
2022-08-27T04:04:06.877Z,77.76
2022-08-27T04:06:34.833Z,77.80
2022-08-27T04:09:02.304Z,77.81
2022-08-27T04:11:28.912Z,77.97
2022-08-27T04:13:56.579Z,77.50
2022-08-27T04:16:23.237Z,77.90
2022-08-27T04:18:49.888Z,79.91
2022-08-27T04:21:16.498Z,79.46
2022-08-27T04:23:43.784Z,80.06
2022-08-27T04:26:11.284Z,79.30
2022-08-27T04:28:39.000Z,80.37
2022-08-27T04:31:12.855Z,81.15
2022-08-27T04:33:51.053Z,82.03
2022-08-27T04:36:18.703Z,81.74
2022-08-27T04:38:45.766Z,82.28
2022-08-27T04:41:12.633Z,82.05
2022-08-27T04:43:39.645Z,81.21
2022-08-27T04:46:09.889Z,81.02
2022-08-27T04:48:36.521Z,81.41
2022-08-27T04:51:05.584Z,81.59
2022-08-27T04:53:33.397Z,81.89
2022-08-27T04:56:00.155Z,81.87
2022-08-27T04:58:26.804Z,82.68
2022-08-27T05:00:57.108Z,83.89
2022-08-27T05:03:24.553Z,83.63
2022-08-27T05:05:52.594Z,84.58
2022-08-27T05:08:19.343Z,83.40
2022-08-27T05:10:48.694Z,83.38
2022-08-27T05:13:16.449Z,84.26
2022-08-27T05:15:43.087Z,84.19
2022-08-27T05:18:10.190Z,82.85
2022-08-27T05:20:48.358Z,82.38
2022-08-27T05:23:18.421Z,82.43
2022-08-27T05:25:47.815Z,81.48
2022-08-27T05:28:16.737Z,81.72
2022-08-27T05:30:52.296Z,82.44
2022-08-27T05:33:25.356Z,82.44
2022-08-27T05:35:54.935Z,84.07
2022-08-27T05:38:23.486Z,84.75
2022-08-27T05:40:50.222Z,85.38
2022-08-27T05:43:18.429Z,86.89
2022-08-27T05:45:48.518Z,85.87
2022-08-27T05:48:16.735Z,85.66
2022-08-27T05:50:44.866Z,85.78
2022-08-27T05:53:12.966Z,85.97
2022-08-27T05:55:44.378Z,86.69
2022-08-27T05:58:13.247Z,85.30
2022-08-27T06:00:39.858Z,85.97
2022-08-27T06:03:07.450Z,87.55
2022-08-27T06:05:34.658Z,87.05
2022-08-27T06:08:01.291Z,86.67
2022-08-27T06:10:28.043Z,86.48
2022-08-27T06:12:56.988Z,86.73
2022-08-27T06:15:23.928Z,86.45
2022-08-27T06:17:50.609Z,86.50
2022-08-27T06:20:17.273Z,87.01
2022-08-27T06:22:44.125Z,87.57
2022-08-27T06:25:10.788Z,88.56
2022-08-27T06:27:37.439Z,88.33
2022-08-27T06:30:04.615Z,89.07
2022-08-27T06:32:31.528Z,88.41
2022-08-27T06:34:58.279Z,88.81
2022-08-27T06:37:25.009Z,89.02
2022-08-27T06:39:51.689Z,89.67
2022-08-27T06:42:18.461Z,90.32
2022-08-27T06:44:52.962Z,89.55
2022-08-27T06:47:21.294Z,88.36
2022-08-27T06:49:47.976Z,85.73
2022-08-27T06:52:15.486Z,84.77
2022-08-27T06:54:42.087Z,87.56
2022-08-27T06:57:08.748Z,86.34
2022-08-27T06:59:35.536Z,85.85
2022-08-27T07:02:03.064Z,84.76
2022-08-27T07:04:32.737Z,83.86
2022-08-27T07:07:01.101Z,82.54
2022-08-27T07:09:27.861Z,83.64
2022-08-27T07:11:54.460Z,84.88
2022-08-27T07:14:21.083Z,85.02
2022-08-27T07:16:48.245Z,84.98
2022-08-27T07:19:16.119Z,84.39
2022-08-27T07:21:44.209Z,84.11
2022-08-27T07:24:10.811Z,84.23
2022-08-27T07:26:40.802Z,83.71
2022-08-27T07:29:10.090Z,82.52
2022-08-27T07:31:37.457Z,82.23
2022-08-27T07:34:05.553Z,83.49
2022-08-27T07:36:33.680Z,84.70
2022-08-27T07:39:01.978Z,84.45
2022-08-27T07:41:33.004Z,84.53
2022-08-27T07:44:00.722Z,85.30
2022-08-27T07:46:27.470Z,84.45
2022-08-27T07:48:55.272Z,84.96
2022-08-27T07:51:23.699Z,83.57
2022-08-27T07:53:50.447Z,82.46
2022-08-27T07:56:17.765Z,82.80
2022-08-27T07:58:45.338Z,83.26
2022-08-27T08:01:13.312Z,84.12
2022-08-27T08:03:41.167Z,83.26
2022-08-27T08:06:14.364Z,83.88
2022-08-27T08:08:41.641Z,85.67
2022-08-27T08:11:12.499Z,84.87
2022-08-27T08:13:39.766Z,85.78
2022-08-27T08:16:07.010Z,86.81
2022-08-27T08:18:34.529Z,86.12
2022-08-27T08:21:07.140Z,85.82
2022-08-27T08:23:33.920Z,84.23
2022-08-27T08:26:01.429Z,82.29
2022-08-27T08:28:28.870Z,81.22
2022-08-27T08:30:56.444Z,84.17
2022-08-27T08:33:23.439Z,83.05
2022-08-27T08:35:50.197Z,83.29
2022-08-27T08:38:18.462Z,82.49
2022-08-27T08:40:50.548Z,83.25
2022-08-27T08:43:23.951Z,82.43
2022-08-27T08:45:51.631Z,81.30
2022-08-27T08:48:22.174Z,83.69
2022-08-27T08:51:13.021Z,85.37
2022-08-27T08:54:03.412Z,85.67
2022-08-27T08:56:54.950Z,86.69
2022-08-27T08:59:44.461Z,87.99
2022-08-27T09:02:13.724Z,87.69
2022-08-27T09:04:42.227Z,86.30
2022-08-27T09:07:36.053Z,87.22
2022-08-27T09:10:13.967Z,87.19
2022-08-27T09:12:40.959Z,84.46
2022-08-27T09:15:29.679Z,84.03
2022-08-27T09:18:14.296Z,85.47
2022-08-27T09:20:46.202Z,84.56
2022-08-27T09:23:26.491Z,83.35
2022-08-27T09:25:53.297Z,82.67
2022-08-27T09:28:24.912Z,82.60
2022-08-27T09:30:53.057Z,83.52
2022-08-27T09:33:19.968Z,82.85
2022-08-27T09:35:46.942Z,82.66
2022-08-27T09:38:59.807Z,82.20
2022-08-27T09:41:30.561Z,81.19
2022-08-27T09:44:11.335Z,79.17
2022-08-27T09:46:38.174Z,79.50
2022-08-27T09:49:16.051Z,78.89
2022-08-27T09:51:45.508Z,79.46
2022-08-27T09:54:22.364Z,77.96
2022-08-27T09:56:50.037Z,78.63
2022-08-27T09:59:21.644Z,79.75
2022-08-27T10:02:07.714Z,79.47
2022-08-27T10:04:51.246Z,78.87
2022-08-27T10:07:37.020Z,79.30
2022-08-27T10:10:06.662Z,79.16
2022-08-27T10:12:46.975Z,78.95
2022-08-27T10:15:14.675Z,80.47
2022-08-27T10:18:09.034Z,79.38
2022-08-27T10:20:47.391Z,78.93
2022-08-27T10:23:26.414Z,77.85
2022-08-27T10:26:20.012Z,77.07
2022-08-27T10:29:09.265Z,79.15
2022-08-27T10:31:45.017Z,76.86
2022-08-27T10:34:25.062Z,78.04
2022-08-27T10:36:59.888Z,77.17
2022-08-27T10:39:46.462Z,75.37
2022-08-27T10:42:38.169Z,73.45
2022-08-27T10:45:31.091Z,73.13
2022-08-27T10:48:15.697Z,73.40
2022-08-27T10:51:11.343Z,73.92
2022-08-27T10:53:53.676Z,73.98
2022-08-27T10:56:35.939Z,75.14
2022-08-27T10:59:25.383Z,76.92
2022-08-27T11:02:13.441Z,76.77
2022-08-27T11:04:45.301Z,75.08
2022-08-27T11:07:38.013Z,76.08
2022-08-27T11:10:14.354Z,76.33
2022-08-27T11:12:45.876Z,75.90
2022-08-27T11:15:15.575Z,77.72
2022-08-27T11:17:48.289Z,77.11
2022-08-27T11:20:28.111Z,76.19
2022-08-27T11:23:08.892Z,77.43
2022-08-27T11:25:43.261Z,76.01
2022-08-27T11:28:11.794Z,76.92
2022-08-27T11:30:52.777Z,76.52
2022-08-27T11:33:41.652Z,76.03
2022-08-27T11:36:29.356Z,74.64
2022-08-27T11:39:22.910Z,73.84
2022-08-27T11:42:09.468Z,74.12
2022-08-27T11:44:42.312Z,73.12
2022-08-27T11:47:21.855Z,75.41
2022-08-27T11:49:58.063Z,77.52
2022-08-27T11:52:41.717Z,77.93
2022-08-27T11:55:20.495Z,78.54
2022-08-27T11:57:50.060Z,76.22
2022-08-27T12:00:30.631Z,75.41
2022-08-27T12:03:03.436Z,75.93
2022-08-27T12:05:36.240Z,73.50
2022-08-27T12:08:33.881Z,73.63
2022-08-27T12:11:44.638Z,73.75
2022-08-27T12:14:17.148Z,73.07
2022-08-27T12:16:56.100Z,74.14
2022-08-27T12:19:55.069Z,73.04
2022-08-27T12:22:39.631Z,72.40
2022-08-27T12:25:06.413Z,71.26
2022-08-27T12:27:34.846Z,68.85
2022-08-27T12:30:23.982Z,72.19
2022-08-27T12:32:51.778Z,70.80
2022-08-27T12:35:20.185Z,71.56
2022-08-27T12:37:57.731Z,71.85
2022-08-27T12:40:27.196Z,72.08
2022-08-27T12:43:14.490Z,69.99
2022-08-27T12:45:49.137Z,70.41
2022-08-27T12:48:22.420Z,68.96
2022-08-27T12:50:55.998Z,68.30
2022-08-27T12:53:41.466Z,68.61
2022-08-27T12:56:28.461Z,68.03
2022-08-27T12:59:04.363Z,67.71
2022-08-27T13:01:52.650Z,67.02
2022-08-27T13:04:30.020Z,69.59
2022-08-27T13:06:57.310Z,68.81
2022-08-27T13:09:33.913Z,69.00
2022-08-27T13:12:03.125Z,68.45
2022-08-27T13:14:37.951Z,69.26
2022-08-27T13:17:09.750Z,69.79
2022-08-27T13:19:44.350Z,69.25
2022-08-27T13:22:11.131Z,68.90
2022-08-27T13:24:50.061Z,68.44
2022-08-27T13:27:27.003Z,69.41
2022-08-27T13:29:55.636Z,70.59
2022-08-27T13:32:24.619Z,71.01
2022-08-27T13:34:51.722Z,69.96
2022-08-27T13:37:34.722Z,69.14
2022-08-27T13:40:01.722Z,68.53
2022-08-27T13:42:28.647Z,67.79
2022-08-27T13:45:06.135Z,68.76
2022-08-27T13:47:42.268Z,69.67
2022-08-27T13:50:22.557Z,71.60
2022-08-27T13:52:50.473Z,71.75
2022-08-27T13:55:17.915Z,72.75
2022-08-27T13:57:47.842Z,71.88
2022-08-27T14:00:23.388Z,72.91
2022-08-27T14:02:55.659Z,72.68
2022-08-27T14:05:23.113Z,72.68
2022-08-27T14:07:52.816Z,74.77
2022-08-27T14:10:43.701Z,74.38
2022-08-27T14:13:16.357Z,74.51
2022-08-27T14:15:55.202Z,74.24
2022-08-27T14:18:48.094Z,72.81
2022-08-27T14:21:13.271Z,72.33
2022-08-27T14:23:39.923Z,73.11
2022-08-27T14:26:08.138Z,71.48
2022-08-27T14:28:34.792Z,71.37
2022-08-27T14:31:01.650Z,70.10
2022-08-27T14:33:28.289Z,70.47
2022-08-27T14:35:55.124Z,71.19
2022-08-27T14:38:24.209Z,70.03
2022-08-27T14:40:54.099Z,69.76
2022-08-27T14:43:21.346Z,70.01
2022-08-27T14:45:52.177Z,70.56
2022-08-27T14:48:28.530Z,70.80
2022-08-27T14:50:56.829Z,70.56
2022-08-27T14:53:23.702Z,70.53
2022-08-27T14:55:51.535Z,70.14
2022-08-27T14:58:19.756Z,71.12
2022-08-27T15:00:46.935Z,72.16
2022-08-27T15:03:13.620Z,72.26
2022-08-27T15:05:40.383Z,72.49
2022-08-27T15:08:12.694Z,71.94
2022-08-27T15:10:39.971Z,71.17
2022-08-27T15:13:06.809Z,71.42
2022-08-27T15:15:33.623Z,73.30
2022-08-27T15:18:00.316Z,74.32
2022-08-27T15:20:27.136Z,72.82
2022-08-27T15:22:53.758Z,73.24
2022-08-27T15:25:20.861Z,72.94
2022-08-27T15:27:47.587Z,72.97
2022-08-27T15:30:16.285Z,74.43
2022-08-27T15:32:46.519Z,73.44
2022-08-27T15:35:16.613Z,73.60
2022-08-27T15:37:43.820Z,74.13
2022-08-27T15:40:13.875Z,74.72
2022-08-27T15:42:41.004Z,74.90
2022-08-27T15:45:09.134Z,73.73
2022-08-27T15:47:35.827Z,72.99
2022-08-27T15:50:02.435Z,73.41
2022-08-27T15:52:41.082Z,72.75
2022-08-27T15:55:18.889Z,74.38
2022-08-27T15:57:45.531Z,73.25
2022-08-27T16:00:12.636Z,73.57
2022-08-27T16:02:41.221Z,72.04
2022-08-27T16:05:07.908Z,70.95
2022-08-27T16:07:34.490Z,71.76
2022-08-27T16:10:01.081Z,71.46
2022-08-27T16:12:27.844Z,71.84
2022-08-27T16:14:55.530Z,71.72
2022-08-27T16:17:23.969Z,72.40
2022-08-27T16:19:50.657Z,72.07
2022-08-27T16:22:17.283Z,72.18
2022-08-27T16:24:44.608Z,72.18
2022-08-27T16:27:11.535Z,72.25
2022-08-27T16:29:38.347Z,73.89
2022-08-27T16:32:10.772Z,75.39
2022-08-27T16:34:37.506Z,75.46
2022-08-27T16:37:04.025Z,75.33
2022-08-27T16:39:33.845Z,76.14
2022-08-27T16:42:03.306Z,76.95
2022-08-27T16:44:29.997Z,76.37
2022-08-27T16:46:56.677Z,75.87
2022-08-27T16:49:23.237Z,76.29
2022-08-27T16:51:53.214Z,75.47
2022-08-27T16:54:19.987Z,76.53
2022-08-27T16:56:46.754Z,75.72
2022-08-27T16:59:13.332Z,76.03
2022-08-27T17:01:41.931Z,76.89
2022-08-27T17:04:14.830Z,76.16
2022-08-27T17:06:45.599Z,76.52
2022-08-27T17:09:12.583Z,75.58
2022-08-27T17:11:41.883Z,76.74
2022-08-27T17:14:09.838Z,77.47
2022-08-27T17:16:37.069Z,76.70
2022-08-27T17:19:05.578Z,76.67
2022-08-27T17:21:33.919Z,75.58
2022-08-27T17:24:01.133Z,76.47
2022-08-27T17:26:29.032Z,75.73
2022-08-27T17:28:55.868Z,74.93
2022-08-27T17:31:32.230Z,73.71
2022-08-27T17:34:00.087Z,73.58
2022-08-27T17:36:29.134Z,73.63
2022-08-27T17:38:56.507Z,73.33
2022-08-27T17:41:43.095Z,72.10
2022-08-27T17:44:20.012Z,70.94
2022-08-27T17:46:47.715Z,70.47
2022-08-27T17:49:14.397Z,70.02
2022-08-27T17:51:41.397Z,69.56
2022-08-27T17:54:25.460Z,69.17
2022-08-27T17:56:52.173Z,68.51
2022-08-27T17:59:18.817Z,68.97
2022-08-27T18:01:45.963Z,70.07
2022-08-27T18:04:12.849Z,70.98
2022-08-27T18:06:40.023Z,69.95
2022-08-27T18:09:06.970Z,70.69
2022-08-27T18:11:37.079Z,71.32
2022-08-27T18:14:05.039Z,71.20
2022-08-27T18:16:48.371Z,69.80
2022-08-27T18:19:24.744Z,69.54
2022-08-27T18:21:57.065Z,68.90
2022-08-27T18:24:23.814Z,68.17
2022-08-27T18:26:54.134Z,67.67
2022-08-27T18:29:21.094Z,68.95
2022-08-27T18:31:47.776Z,69.00
2022-08-27T18:34:20.048Z,68.26
2022-08-27T18:36:48.144Z,67.48
2022-08-27T18:39:14.755Z,67.38
2022-08-27T18:41:42.347Z,67.02
2022-08-27T18:44:16.956Z,67.78
2022-08-27T18:46:45.478Z,69.25
2022-08-27T18:49:12.116Z,70.17
2022-08-27T18:54:24.285Z,69.33
2022-08-27T18:56:51.117Z,69.11
2022-08-27T18:59:20.785Z,68.15
2022-08-27T19:01:50.653Z,70.45
2022-08-27T19:04:17.364Z,70.93
2022-08-27T19:06:44.014Z,70.74
2022-08-27T19:09:10.830Z,72.20
2022-08-27T19:11:38.549Z,71.06
2022-08-27T19:14:05.210Z,71.15
2022-08-27T19:16:46.096Z,70.66
2022-08-27T19:19:17.675Z,69.68
2022-08-27T19:21:49.239Z,70.20
2022-08-27T19:24:20.182Z,70.60
2022-08-27T19:26:48.230Z,70.49
2022-08-27T19:29:18.156Z,70.93
2022-08-27T19:31:48.905Z,73.03
2022-08-27T19:34:15.549Z,71.90
2022-08-27T19:36:43.379Z,70.96
2022-08-27T19:39:12.493Z,72.16
2022-08-27T19:41:39.568Z,72.27
2022-08-27T19:44:06.263Z,71.33
2022-08-27T19:46:33.485Z,70.64
2022-08-27T19:49:00.081Z,70.11
2022-08-27T19:51:26.819Z,70.51
2022-08-27T19:53:54.050Z,70.18
2022-08-27T19:56:21.299Z,69.98
2022-08-27T19:58:48.115Z,69.07
2022-08-27T20:01:15.108Z,71.15
2022-08-27T20:03:42.032Z,72.49
2022-08-27T20:06:09.250Z,73.16
2022-08-27T20:08:35.928Z,71.69
2022-08-27T20:11:02.718Z,72.18
2022-08-27T20:13:33.044Z,72.53
2022-08-27T20:16:00.349Z,70.86
2022-08-27T20:18:27.003Z,70.66
2022-08-27T20:20:53.719Z,69.85
2022-08-27T20:23:20.805Z,69.62
2022-08-27T20:25:47.464Z,69.20
2022-08-27T20:28:37.800Z,70.76
2022-08-27T20:31:02.389Z,70.34
2022-08-27T20:33:29.010Z,69.43
2022-08-27T20:35:58.515Z,69.15
2022-08-27T20:38:25.750Z,68.67
2022-08-27T20:40:52.434Z,69.12
2022-08-27T20:43:19.063Z,69.18
2022-08-27T20:45:46.239Z,69.14
2022-08-27T20:48:13.286Z,69.21
2022-08-27T20:50:42.206Z,69.13
2022-08-27T20:53:09.087Z,69.80
2022-08-27T20:55:35.800Z,70.49
2022-08-27T20:58:11.895Z,70.77
2022-08-27T21:00:41.457Z,71.02
2022-08-27T21:03:09.950Z,71.61
2022-08-27T21:05:38.002Z,71.75
2022-08-27T21:08:06.536Z,71.25
2022-08-27T21:10:33.911Z,70.90
2022-08-27T21:13:05.266Z,70.74
2022-08-27T21:15:33.489Z,71.12
2022-08-27T21:18:00.130Z,71.27
2022-08-27T21:20:26.771Z,70.73
2022-08-27T21:22:53.479Z,70.10
2022-08-27T21:25:20.156Z,70.56
2022-08-27T21:27:46.764Z,69.96
2022-08-27T21:30:13.744Z,69.69
2022-08-27T21:32:40.327Z,69.93
2022-08-27T21:35:07.252Z,69.92
2022-08-27T21:37:34.559Z,70.77
2022-08-27T21:40:01.400Z,70.31
2022-08-27T21:42:27.993Z,71.46
2022-08-27T21:44:54.919Z,71.18
2022-08-27T21:47:21.459Z,70.47
2022-08-27T21:49:48.295Z,70.99
2022-08-27T21:52:15.401Z,70.54
2022-08-27T21:54:42.268Z,69.76
2022-08-27T21:57:10.717Z,70.21
2022-08-27T21:59:44.702Z,69.62
2022-08-27T22:02:35.895Z,69.32
2022-08-27T22:04:58.388Z,69.50
2022-08-27T22:07:24.927Z,68.80
2022-08-27T22:09:51.490Z,69.52
2022-08-27T22:12:18.101Z,70.04
2022-08-27T22:14:44.849Z,70.12
2022-08-27T22:17:11.465Z,69.88
2022-08-27T22:19:38.133Z,69.46
2022-08-27T22:22:04.666Z,69.56
2022-08-27T22:24:31.326Z,69.58
2022-08-27T22:26:57.959Z,69.83
2022-08-27T22:29:24.564Z,69.37
2022-08-27T22:31:51.146Z,70.18
2022-08-27T22:34:18.151Z,70.20
2022-08-27T22:36:44.759Z,69.77
2022-08-27T22:39:11.332Z,69.77
2022-08-27T22:41:38.307Z,69.78
2022-08-27T22:44:08.468Z,69.42
2022-08-27T22:46:35.098Z,69.57
2022-08-27T22:49:01.880Z,69.53
2022-08-27T22:51:28.422Z,69.36
2022-08-27T22:53:55.103Z,69.66
2022-08-27T22:56:21.698Z,70.11
2022-08-27T22:58:48.470Z,69.79
2022-08-27T23:01:21.036Z,70.10
2022-08-27T23:03:48.795Z,70.06
2022-08-27T23:06:15.575Z,70.13
2022-08-27T23:08:42.228Z,70.52
2022-08-27T23:11:08.864Z,70.48
2022-08-27T23:13:35.652Z,70.44
2022-08-27T23:16:02.751Z,69.99
2022-08-27T23:18:29.754Z,69.74
2022-08-27T23:20:56.583Z,69.07
2022-08-27T23:23:24.427Z,68.77
2022-08-27T23:25:56.544Z,68.62
2022-08-27T23:28:23.285Z,68.74
2022-08-27T23:30:50.259Z,69.72
2022-08-27T23:33:17.208Z,69.45
2022-08-27T23:35:43.896Z,70.14
2022-08-27T23:38:10.865Z,70.29
2022-08-27T23:40:37.797Z,70.45
2022-08-27T23:43:04.451Z,69.70
2022-08-27T23:45:31.138Z,69.61
2022-08-27T23:47:57.740Z,69.88
2022-08-27T23:50:33.678Z,69.52
2022-08-27T23:53:02.719Z,69.00
2022-08-27T23:55:29.430Z,69.41
2022-08-27T23:57:56.081Z,69.37
